Henryton, Maryland
Current Conditions -  °F | °C
As of 5:54 PM on Thursday 27 Nov 2014 (Local Time) from KBWI Reporting Station
Broken Clouds Broken Clouds  
Wind Chill: 34°   Ceiling: 6000
Heat Index: 38°   Visibility: 10mi
Dew Point: 30°   Wind: 5mph
Humidity: 73%   Direction: 290°WNW
Pressure: 30.09"   Gusts: NA
Location:  39.35°N, 76.9°W
Report Text: KBWI 272254Z 29004KT 10SM FEW033 BKN060 BKN140 BKN250 03/M01 A3009 RMK AO2 SLP191 VIRGA S T00331011
Loading
Personal Weather Stations






























Interactive Weather Map New forecast layout! Learn more

10-Day Weather Forecast

Advertisements
Track Severe Weather on mobile